Time;durP1;ratioP1;P1;durP2;ratioP2;P2;SDS_P1;SDS_P2;PMS_P1;PMS_P2;Temp;Humidity;BMP_temperature;BMP_pressure;BME280_temperature;BME280_humidity;BME280_pressure;Samples;Min_cycle;Max_cycle;Signal;HPM_P1;HPM_P2
2022/08/04 00:01:33;;;;;;;6.35;2.85;;;;;;;;;;6180957;28;20053;-71
2022/08/04 00:04:43;;;;;;;3.83;2.95;;;;;;;;;;6179099;28;20078;-70
2022/08/04 00:07:49;;;;;;;4.45;2.88;;;;;;;;;;6179095;28;20070;-71
2022/08/04 00:10:54;;;;;;;6.65;2.80;;;;;;;;;;6177528;28;20065;-71
2022/08/04 00:13:58;;;;;;;6.32;2.70;;;;;;;;;;6179150;28;20061;-71
2022/08/04 00:17:04;;;;;;;3.55;2.80;;;;;;;;;;6181125;28;20049;-70
2022/08/04 00:43:57;;;;;;;5.10;2.90;;;;;;;;;;6168472;28;20358;-70
2022/08/04 00:47:08;;;;;;;6.13;2.97;;;;;;;;;;6182235;28;20057;-70
2022/08/04 00:50:11;;;;;;;3.10;2.50;;;;;;;;;;6183765;28;20065;-70
2022/08/04 00:53:17;;;;;;;5.72;3.15;;;;;;;;;;6185694;28;20163;-71
2022/08/04 00:56:44;;;;;;;4.00;2.78;;;;;;;;;;6185100;28;20047;-72
2022/08/04 01:00:00;;;;;;;4.03;2.67;;;;;;;;;;6186728;28;20046;-71
2022/08/04 01:03:10;;;;;;;7.10;2.55;;;;;;;;;;6181478;28;20065;-70
2022/08/04 01:06:22;;;;;;;5.63;2.92;;;;;;;;;;6184861;28;20295;-70
2022/08/04 01:09:39;;;;;;;4.78;2.65;;;;;;;;;;6183181;28;20046;-71
2022/08/04 01:12:53;;;;;;;3.95;2.55;;;;;;;;;;6185128;28;20058;-70
2022/08/04 01:16:00;;;;;;;6.43;2.40;;;;;;;;;;6185393;28;20064;-70
2022/08/04 01:19:03;;;;;;;3.30;2.33;;;;;;;;;;6184516;28;20528;-71
2022/08/04 01:22:19;;;;;;;4.60;2.40;;;;;;;;;;6183025;28;20230;-70
2022/08/04 01:25:53;;;;;;;2.85;2.58;;;;;;;;;;6188080;28;20101;-71
2022/08/04 01:29:08;;;;;;;4.20;2.42;;;;;;;;;;6182273;28;20058;-70
2022/08/04 01:32:15;;;;;;;4.25;2.38;;;;;;;;;;6179045;28;20066;-70
2022/08/04 01:35:22;;;;;;;5.60;2.53;;;;;;;;;;6183781;28;20057;-70
2022/08/04 01:38:26;;;;;;;3.42;2.40;;;;;;;;;;6181999;28;20055;-70
2022/08/04 01:41:28;;;;;;;6.43;2.78;;;;;;;;;;6182259;28;20060;-70
2022/08/04 01:44:31;;;;;;;6.65;2.80;;;;;;;;;;6185059;28;20323;-70
2022/08/04 01:47:35;;;;;;;8.48;3.05;;;;;;;;;;6184105;28;20049;-70
2022/08/04 01:50:37;;;;;;;3.72;2.67;;;;;;;;;;6181194;28;20054;-70
2022/08/04 01:53:40;;;;;;;4.15;2.70;;;;;;;;;;6184077;28;20058;-70
2022/08/04 01:56:43;;;;;;;5.40;3.08;;;;;;;;;;6184897;28;20098;-70
2022/08/04 01:59:48;;;;;;;5.30;3.00;;;;;;;;;;6181228;28;20042;-70
2022/08/04 02:02:51;;;;;;;7.07;3.28;;;;;;;;;;6183712;28;20131;-70
2022/08/04 02:05:55;;;;;;;6.47;3.00;;;;;;;;;;6184326;28;20055;-70
2022/08/04 02:09:04;;;;;;;6.55;2.75;;;;;;;;;;6182842;28;20054;-68
2022/08/04 02:12:11;;;;;;;4.18;2.70;;;;;;;;;;6180101;28;20070;-70
2022/08/04 02:15:25;;;;;;;6.65;3.20;;;;;;;;;;6184305;28;20066;-70
2022/08/04 02:18:31;;;;;;;5.90;2.47;;;;;;;;;;6177677;28;20160;-70
2022/08/04 02:21:34;;;;;;;7.13;2.88;;;;;;;;;;6182087;28;20342;-70
2022/08/04 02:24:36;;;;;;;;;;;;;;;;;;6184945;28;20120;-70
2022/08/04 02:27:52;;;;;;;3.25;2.67;;;;;;;;;;6180919;28;20008;-70
2022/08/04 02:31:04;;;;;;;4.25;2.90;;;;;;;;;;6178486;28;20054;-69
2022/08/04 02:34:08;;;;;;;4.00;2.40;;;;;;;;;;6181224;28;20397;-68
2022/08/04 02:37:11;;;;;;;4.90;2.53;;;;;;;;;;6182993;28;20054;-70
2022/08/04 02:40:12;;;;;;;5.80;2.88;;;;;;;;;;6184354;28;20046;-70
2022/08/04 02:43:15;;;;;;;6.18;2.53;;;;;;;;;;6182050;28;20240;-70
2022/08/04 02:46:20;;;;;;;4.60;2.60;;;;;;;;;;6175720;28;20114;-70
2022/08/04 02:49:23;;;;;;;3.42;2.50;;;;;;;;;;6182683;28;20322;-70
2022/08/04 02:52:25;;;;;;;7.35;2.80;;;;;;;;;;6180068;28;20074;-70
2022/08/04 02:55:29;;;;;;;2.75;2.30;;;;;;;;;;6182184;28;20349;-71
2022/08/04 02:58:34;;;;;;;3.13;2.40;;;;;;;;;;6182847;28;20254;-68
2022/08/04 03:01:38;;;;;;;3.13;2.45;;;;;;;;;;6180083;28;20222;-69
2022/08/04 03:04:52;;;;;;;3.53;2.35;;;;;;;;;;6178784;28;20348;-70
2022/08/04 03:08:06;;;;;;;3.42;2.72;;;;;;;;;;6180828;28;20350;-68
2022/08/04 03:11:22;;;;;;;4.70;2.42;;;;;;;;;;6175630;28;20050;-70
2022/08/04 03:14:51;;;;;;;4.10;2.72;;;;;;;;;;6179198;28;20338;-70
2022/08/04 03:18:23;;;;;;;6.03;2.50;;;;;;;;;;6183054;28;20061;-70
2022/08/04 03:21:50;;;;;;;3.80;2.53;;;;;;;;;;6181223;28;20050;-71
2022/08/04 03:25:10;;;;;;;2.65;2.25;;;;;;;;;;6180194;28;20063;-69
2022/08/04 03:28:35;;;;;;;4.65;2.72;;;;;;;;;;6181931;28;20279;-70
2022/08/04 03:32:16;;;;;;;5.97;2.97;;;;;;;;;;6178595;28;20093;-70
2022/08/04 03:35:35;;;;;;;4.25;2.70;;;;;;;;;;6177767;28;20345;-69
2022/08/04 03:39:03;;;;;;;5.50;2.63;;;;;;;;;;6182509;28;20053;-70
2022/08/04 03:42:27;;;;;;;4.53;2.40;;;;;;;;;;6181077;28;20059;-70
2022/08/04 03:46:05;;;;;;;7.13;2.72;;;;;;;;;;6179562;28;20042;-70
2022/08/04 03:49:38;;;;;;;6.82;2.80;;;;;;;;;;6079263;29;20063;-69
2022/08/04 03:53:11;;;;;;;5.25;2.72;;;;;;;;;;6077278;29;20068;-70
2022/08/04 03:56:30;;;;;;;3.28;2.60;;;;;;;;;;6075518;29;20131;-70
2022/08/04 03:59:41;;;;;;;3.90;2.40;;;;;;;;;;6079892;29;20055;-70
2022/08/04 04:03:13;;;;;;;9.10;2.72;;;;;;;;;;6080512;29;20052;-70
2022/08/04 04:06:39;;;;;;;7.45;2.80;;;;;;;;;;6081692;29;20064;-69
2022/08/04 04:10:06;;;;;;;5.93;2.50;;;;;;;;;;6077929;29;20336;-69
2022/08/04 04:13:43;;;;;;;5.57;2.88;;;;;;;;;;6081783;29;20056;-70
2022/08/04 04:17:09;;;;;;;4.30;2.95;;;;;;;;;;6080343;29;20312;-70
2022/08/04 04:20:24;;;;;;;3.05;2.65;;;;;;;;;;6084724;29;20455;-70
2022/08/04 04:23:32;;;;;;;3.90;2.83;;;;;;;;;;6082007;29;20590;-70
2022/08/04 04:26:57;;;;;;;6.20;2.50;;;;;;;;;;6170299;28;20050;-70
2022/08/04 04:30:05;;;;;;;5.50;2.80;;;;;;;;;;6183329;28;20068;-70
2022/08/04 04:33:24;;;;;;;4.88;3.00;;;;;;;;;;6182498;28;20064;-70
2022/08/04 04:36:33;;;;;;;4.47;2.72;;;;;;;;;;6183847;28;20105;-70
2022/08/04 04:39:45;;;;;;;3.95;2.45;;;;;;;;;;6182503;28;20058;-70
2022/08/04 04:43:19;;;;;;;3.27;2.40;;;;;;;;;;6184016;28;20962;-70
2022/08/04 04:46:31;;;;;;;5.13;2.90;;;;;;;;;;6182666;28;20117;-71
2022/08/04 04:49:37;;;;;;;6.10;2.95;;;;;;;;;;6182862;28;20050;-71
2022/08/04 04:52:41;;;;;;;5.63;2.63;;;;;;;;;;6182605;28;20047;-70
2022/08/04 04:55:48;;;;;;;6.28;2.60;;;;;;;;;;6183881;28;20097;-70
2022/08/04 04:58:53;;;;;;;6.13;2.65;;;;;;;;;;6179323;28;20354;-70
2022/08/04 05:02:18;;;;;;;5.60;2.42;;;;;;;;;;6183000;28;20088;-69
2022/08/04 05:05:40;;;;;;;6.25;2.47;;;;;;;;;;6180889;28;20318;-73
2022/08/04 05:09:04;;;;;;;3.92;2.50;;;;;;;;;;6172988;28;20050;-68
2022/08/04 05:12:20;;;;;;;3.38;2.28;;;;;;;;;;6182864;28;20093;-69
2022/08/04 05:15:27;;;;;;;7.57;2.58;;;;;;;;;;6186825;28;20057;-69
2022/08/04 05:18:31;;;;;;;4.25;2.42;;;;;;;;;;6180508;28;20055;-71
2022/08/04 05:21:38;;;;;;;4.93;2.63;;;;;;;;;;6184175;28;20070;-69
2022/08/04 05:24:45;;;;;;;7.30;2.60;;;;;;;;;;6183527;28;20125;-69
2022/08/04 05:27:50;;;;;;;7.65;2.90;;;;;;;;;;6181882;28;20352;-69
2022/08/04 05:30:59;;;;;;;5.00;2.67;;;;;;;;;;6179501;28;20065;-69
2022/08/04 05:34:07;;;;;;;5.32;3.15;;;;;;;;;;6184345;28;20381;-69
2022/08/04 05:37:11;;;;;;;5.53;3.00;;;;;;;;;;6183799;28;20072;-70
2022/08/04 05:40:13;;;;;;;6.70;2.55;;;;;;;;;;6180751;28;20048;-69
2022/08/04 05:43:16;;;;;;;6.40;2.60;;;;;;;;;;6181232;28;20329;-69
2022/08/04 05:46:25;;;;;;;6.13;2.70;;;;;;;;;;6181429;28;20061;-69
2022/08/04 05:49:27;;;;;;;5.70;2.78;;;;;;;;;;6182631;28;20047;-70
2022/08/04 05:52:30;;;;;;;3.63;2.33;;;;;;;;;;6184466;28;20054;-70
2022/08/04 05:55:33;;;;;;;3.20;2.50;;;;;;;;;;6183526;28;20059;-70
2022/08/04 05:58:35;;;;;;;6.65;2.17;;;;;;;;;;6181950;28;20247;-69
2022/08/04 06:01:39;;;;;;;6.82;2.55;;;;;;;;;;6183349;28;20054;-70
2022/08/04 06:04:43;;;;;;;3.17;2.40;;;;;;;;;;6184218;28;20071;-69
2022/08/04 06:07:45;;;;;;;4.95;2.67;;;;;;;;;;6183362;28;20053;-71
2022/08/04 06:10:48;;;;;;;7.88;2.45;;;;;;;;;;6186598;28;20063;-70
2022/08/04 06:13:53;;;;;;;5.18;2.35;;;;;;;;;;6179471;28;20058;-70
2022/08/04 06:16:57;;;;;;;4.22;2.20;;;;;;;;;;6180724;28;20093;-70
2022/08/04 06:19:59;;;;;;;3.65;2.80;;;;;;;;;;6183272;28;20200;-71
2022/08/04 06:23:03;;;;;;;3.25;2.20;;;;;;;;;;6180577;28;20042;-71
2022/08/04 06:26:05;;;;;;;6.43;2.35;;;;;;;;;;6184039;28;20121;-70
2022/08/04 06:29:15;;;;;;;4.53;2.75;;;;;;;;;;6181574;28;20047;-74
2022/08/04 06:32:26;;;;;;;4.53;2.95;;;;;;;;;;6183430;28;20058;-72
2022/08/04 06:35:29;;;;;;;5.95;2.60;;;;;;;;;;6179953;28;20053;-71
2022/08/04 06:38:34;;;;;;;5.93;2.15;;;;;;;;;;6175459;28;20061;-70
2022/08/04 06:41:37;;;;;;;3.75;2.15;;;;;;;;;;6180737;28;20113;-70
2022/08/04 06:44:39;;;;;;;4.88;2.08;;;;;;;;;;6184041;28;21708;-71
2022/08/04 06:47:43;;;;;;;2.63;2.00;;;;;;;;;;6180738;28;20249;-69
2022/08/04 06:50:48;;;;;;;4.07;2.20;;;;;;;;;;6180446;28;20097;-75
2022/08/04 06:53:50;;;;;;;4.95;2.30;;;;;;;;;;6182057;28;20042;-70
2022/08/04 06:56:52;;;;;;;4.35;2.20;;;;;;;;;;6182433;28;20054;-71
2022/08/04 06:59:57;;;;;;;6.60;2.47;;;;;;;;;;6177471;28;20294;-71
2022/08/04 07:03:21;;;;;;;3.72;2.10;;;;;;;;;;6182346;28;20054;-72
2022/08/04 07:06:24;;;;;;;3.58;2.20;;;;;;;;;;6174557;28;20057;-72
2022/08/04 07:09:25;;;;;;;;;;;;;;;;;;6178643;28;20081;-71
2022/08/04 07:12:28;;;;;;;6.20;2.45;;;;;;;;;;6179305;28;19997;-70
2022/08/04 07:15:30;;;;;;;3.38;2.03;;;;;;;;;;6183941;28;20046;-71
2022/08/04 07:18:33;;;;;;;4.70;1.85;;;;;;;;;;6181439;28;20054;-73
2022/08/04 07:21:35;;;;;;;3.65;2.45;;;;;;;;;;6174526;28;20046;-71
2022/08/04 07:24:38;;;;;;;4.22;2.47;;;;;;;;;;6179918;28;20047;-71
2022/08/04 07:27:39;;;;;;;;;;;;;;;;;;6179331;28;20070;-73
2022/08/04 07:30:42;;;;;;;5.32;2.40;;;;;;;;;;6185126;28;19969;-69
2022/08/04 07:33:47;;;;;;;12.45;2.50;;;;;;;;;;6183066;28;20251;-70
2022/08/04 07:36:50;;;;;;;7.13;2.35;;;;;;;;;;6180919;28;20057;-70
2022/08/04 07:39:52;;;;;;;4.05;2.22;;;;;;;;;;6179302;28;20056;-68
2022/08/04 07:42:54;;;;;;;7.63;2.05;;;;;;;;;;6179765;28;20050;-71
2022/08/04 07:45:56;;;;;;;6.22;2.88;;;;;;;;;;6179707;28;20050;-71
2022/08/04 07:48:59;;;;;;;6.50;2.40;;;;;;;;;;6175812;28;20101;-70
2022/08/04 07:52:02;;;;;;;8.20;2.60;;;;;;;;;;6178794;28;20055;-70
2022/08/04 07:55:05;;;;;;;7.18;2.10;;;;;;;;;;6178909;28;20058;-70
2022/08/04 07:58:06;;;;;;;7.93;2.08;;;;;;;;;;6177683;28;20046;-69
2022/08/04 08:04:26;;;;;;;5.13;2.08;;;;;;;;;;6182378;28;20345;-71
2022/08/04 08:07:28;;;;;;;4.43;2.00;;;;;;;;;;6189016;28;20055;-71
2022/08/04 08:10:30;;;;;;;4.20;1.90;;;;;;;;;;6184182;28;20055;-71
2022/08/04 08:13:32;;;;;;;5.20;1.90;;;;;;;;;;6184251;28;20105;-71
2022/08/04 08:16:33;;;;;;;;;;;;;;;;;;6180680;28;20054;-71
2022/08/04 08:19:37;;;;;;;6.88;1.98;;;;;;;;;;6179676;28;19918;-71
2022/08/04 08:22:39;;;;;;;3.95;1.80;;;;;;;;;;6183338;28;20110;-71
2022/08/04 08:25:41;;;;;;;3.80;1.77;;;;;;;;;;6179499;28;20046;-71
2022/08/04 08:28:51;;;;;;;2.80;1.50;;;;;;;;;;6178932;28;20050;-71
2022/08/04 08:31:53;;;;;;;3.75;1.70;;;;;;;;;;6177071;28;20063;-69
2022/08/04 08:34:57;;;;;;;2.80;1.60;;;;;;;;;;6178324;28;20215;-72
2022/08/04 08:38:03;;;;;;;4.05;1.90;;;;;;;;;;6177234;28;20065;-72
2022/08/04 08:41:23;;;;;;;3.03;2.10;;;;;;;;;;6180260;28;20054;-71
2022/08/04 08:45:10;;;;;;;5.07;1.80;;;;;;;;;;6177995;28;20219;-72
2022/08/04 08:48:41;;;;;;;5.15;1.80;;;;;;;;;;6175386;28;20239;-73
2022/08/04 08:51:55;;;;;;;4.35;1.60;;;;;;;;;;6178858;28;20271;-72
2022/08/04 08:55:19;;;;;;;3.00;1.60;;;;;;;;;;6175352;28;20055;-73
2022/08/04 08:58:32;;;;;;;2.15;1.30;;;;;;;;;;6176980;28;20058;-73
2022/08/04 09:01:44;;;;;;;2.28;1.52;;;;;;;;;;6180658;28;20099;-76
2022/08/04 09:05:19;;;;;;;3.47;1.50;;;;;;;;;;6180777;28;20053;-75
2022/08/04 09:08:55;;;;;;;4.28;1.40;;;;;;;;;;6180245;28;20062;-74
2022/08/04 09:12:06;;;;;;;5.65;2.13;;;;;;;;;;6180409;28;20058;-75
2022/08/04 09:15:12;;;;;;;3.20;1.80;;;;;;;;;;6181474;28;20050;-73
2022/08/04 09:18:19;;;;;;;1.73;1.40;;;;;;;;;;6178114;28;20860;-74
2022/08/04 09:21:26;;;;;;;3.00;1.50;;;;;;;;;;6183615;28;20126;-74
2022/08/04 09:24:35;;;;;;;5.10;1.73;;;;;;;;;;6180054;28;20066;-74
2022/08/04 09:27:44;;;;;;;2.72;1.55;;;;;;;;;;6182397;28;20054;-74
2022/08/04 09:30:49;;;;;;;2.03;1.77;;;;;;;;;;6175814;28;20039;-76
2022/08/04 09:33:59;;;;;;;4.85;2.10;;;;;;;;;;6178770;28;20065;-75
2022/08/04 09:37:11;;;;;;;1.85;1.60;;;;;;;;;;6179620;28;20105;-75
2022/08/04 09:40:21;;;;;;;3.45;2.03;;;;;;;;;;6177958;28;20051;-75
2022/08/04 09:43:37;;;;;;;3.97;1.70;;;;;;;;;;6177706;28;20051;-75
2022/08/04 09:46:42;;;;;;;5.05;2.00;;;;;;;;;;6176634;28;20097;-74
2022/08/04 09:49:51;;;;;;;4.68;2.33;;;;;;;;;;6180886;28;20117;-74
2022/08/04 09:52:58;;;;;;;4.65;1.90;;;;;;;;;;6180712;28;20058;-75
2022/08/04 09:56:09;;;;;;;4.15;2.22;;;;;;;;;;6181871;28;20046;-73
2022/08/04 09:59:19;;;;;;;7.53;2.30;;;;;;;;;;6178956;28;20106;-74
2022/08/04 10:02:23;;;;;;;5.55;2.00;;;;;;;;;;6180643;28;20077;-73
2022/08/04 10:05:27;;;;;;;2.83;2.10;;;;;;;;;;6182419;28;20061;-72
2022/08/04 10:08:44;;;;;;;3.83;2.10;;;;;;;;;;6183742;28;20097;-73
2022/08/04 10:11:55;;;;;;;3.47;2.00;;;;;;;;;;6179328;28;20047;-73
2022/08/04 10:14:58;;;;;;;;;;;;;;;;;;6180140;28;20050;-72
2022/08/04 10:18:08;;;;;;;6.28;2.05;;;;;;;;;;6187193;28;19925;-74
2022/08/04 10:21:13;;;;;;;5.03;1.90;;;;;;;;;;6184729;28;20050;-74
2022/08/04 10:24:28;;;;;;;4.93;2.00;;;;;;;;;;6184576;28;20053;-72
2022/08/04 10:27:34;;;;;;;5.18;2.25;;;;;;;;;;6183996;28;20050;-72
2022/08/04 10:30:39;;;;;;;3.60;2.33;;;;;;;;;;6180640;28;20062;-72
2022/08/04 10:33:45;;;;;;;5.53;2.35;;;;;;;;;;6180399;28;20286;-73
2022/08/04 10:36:54;;;;;;;3.15;2.60;;;;;;;;;;6182524;28;20086;-72
2022/08/04 10:43:25;;;;;;;3.35;2.30;;;;;;;;;;6184252;28;20058;-73
2022/08/04 10:46:32;;;;;;;4.50;2.20;;;;;;;;;;6182338;28;20050;-72
2022/08/04 10:49:37;;;;;;;4.18;2.30;;;;;;;;;;6181110;28;20306;-72
2022/08/04 10:52:43;;;;;;;9.70;2.38;;;;;;;;;;6180328;28;20220;-73
2022/08/04 10:55:49;;;;;;;4.20;2.20;;;;;;;;;;6183814;28;20093;-72
2022/08/04 10:58:54;;;;;;;4.95;2.08;;;;;;;;;;6183044;28;20125;-73
2022/08/04 11:02:03;;;;;;;5.07;2.10;;;;;;;;;;6181350;28;20101;-73
2022/08/04 11:05:12;;;;;;;2.42;2.00;;;;;;;;;;6183644;28;20058;-73
2022/08/04 11:08:17;;;;;;;2.63;2.10;;;;;;;;;;6184378;28;20110;-73
2022/08/04 11:11:24;;;;;;;5.03;1.90;;;;;;;;;;6181860;28;20129;-72
2022/08/04 11:14:33;;;;;;;5.07;2.10;;;;;;;;;;6182710;28;20054;-72
2022/08/04 11:17:36;;;;;;;4.53;1.90;;;;;;;;;;6180070;28;20043;-72
2022/08/04 11:20:42;;;;;;;2.72;2.00;;;;;;;;;;6181681;28;20326;-73
2022/08/04 11:23:48;;;;;;;2.78;2.47;;;;;;;;;;6181996;28;20046;-72
2022/08/04 11:26:53;;;;;;;3.42;2.20;;;;;;;;;;6180684;28;20046;-71
2022/08/04 11:30:04;;;;;;;3.80;2.80;;;;;;;;;;6180715;28;20055;-72
2022/08/04 11:33:10;;;;;;;3.17;2.40;;;;;;;;;;6182862;28;20053;-72
2022/08/04 11:36:18;;;;;;;3.95;2.20;;;;;;;;;;6185105;28;20238;-72
2022/08/04 11:39:28;;;;;;;3.55;2.33;;;;;;;;;;6175462;28;20066;-72
2022/08/04 11:42:33;;;;;;;3.63;2.20;;;;;;;;;;6176199;28;20058;-71
2022/08/04 11:45:42;;;;;;;4.05;2.28;;;;;;;;;;6184901;28;20055;-71
2022/08/04 11:48:49;;;;;;;3.40;2.47;;;;;;;;;;6184427;28;20250;-69
2022/08/04 11:51:52;;;;;;;4.00;2.55;;;;;;;;;;6184375;28;20516;-71
2022/08/04 11:54:54;;;;;;;5.93;2.53;;;;;;;;;;6189924;28;20047;-70
2022/08/04 11:57:56;;;;;;;4.82;2.47;;;;;;;;;;6185210;28;20069;-72
2022/08/04 12:01:09;;;;;;;4.97;2.40;;;;;;;;;;6185827;28;20047;-72
2022/08/04 12:04:17;;;;;;;5.38;2.63;;;;;;;;;;6182420;28;20373;-72
2022/08/04 12:07:23;;;;;;;3.97;2.45;;;;;;;;;;6185530;28;20058;-71
2022/08/04 12:10:33;;;;;;;4.10;2.30;;;;;;;;;;6187136;28;20082;-72
2022/08/04 12:13:40;;;;;;;7.32;2.47;;;;;;;;;;6183599;28;20077;-74
2022/08/04 12:16:48;;;;;;;3.00;2.20;;;;;;;;;;6186126;28;20102;-71
2022/08/04 12:19:51;;;;;;;7.07;2.20;;;;;;;;;;6183221;28;20051;-73
2022/08/04 12:22:55;;;;;;;2.63;2.00;;;;;;;;;;6182963;28;20234;-71
2022/08/04 12:26:01;;;;;;;3.92;2.40;;;;;;;;;;6185636;28;20093;-72
2022/08/04 12:29:03;;;;;;;2.22;2.03;;;;;;;;;;6182449;28;20075;-72
2022/08/04 12:32:17;;;;;;;3.10;2.25;;;;;;;;;;6186413;28;20912;-71
2022/08/04 12:35:21;;;;;;;5.10;2.10;;;;;;;;;;6190786;28;20054;-71
2022/08/04 12:38:23;;;;;;;6.10;2.42;;;;;;;;;;6186205;28;20055;-72
2022/08/04 12:41:30;;;;;;;3.17;2.40;;;;;;;;;;6190037;28;20211;-71
2022/08/04 12:44:34;;;;;;;4.25;2.50;;;;;;;;;;6184855;28;20061;-71
2022/08/04 12:47:37;;;;;;;3.75;2.28;;;;;;;;;;6185532;28;20420;-72
2022/08/04 12:50:40;;;;;;;3.10;2.20;;;;;;;;;;6192158;28;20137;-71
2022/08/04 12:53:43;;;;;;;3.60;2.00;;;;;;;;;;6189557;28;20066;-71
2022/08/04 12:56:46;;;;;;;3.90;2.30;;;;;;;;;;6186172;28;20046;-71
2022/08/04 12:59:48;;;;;;;5.28;1.90;;;;;;;;;;6186323;28;20055;-73
2022/08/04 13:02:52;;;;;;;2.80;2.20;;;;;;;;;;6184783;28;20054;-71
2022/08/04 13:05:54;;;;;;;2.33;2.10;;;;;;;;;;6184876;28;20050;-71
2022/08/04 13:09:03;;;;;;;3.38;2.10;;;;;;;;;;6185073;28;20066;-70
2022/08/04 13:12:12;;;;;;;6.22;2.20;;;;;;;;;;6184061;28;20063;-70
2022/08/04 13:15:16;;;;;;;4.72;2.20;;;;;;;;;;6186729;28;20062;-70
2022/08/04 13:18:20;;;;;;;4.43;2.30;;;;;;;;;;6181911;28;20159;-71
2022/08/04 13:21:23;;;;;;;5.60;2.15;;;;;;;;;;6182254;28;20043;-70
2022/08/04 13:24:26;;;;;;;2.08;1.85;;;;;;;;;;6185530;28;20330;-70
2022/08/04 13:27:28;;;;;;;4.50;2.00;;;;;;;;;;6182062;28;20057;-70
2022/08/04 13:30:32;;;;;;;3.00;2.15;;;;;;;;;;6186342;28;20303;-71
2022/08/04 13:33:50;;;;;;;3.10;2.25;;;;;;;;;;6183621;28;20058;-71
2022/08/04 13:36:55;;;;;;;2.45;1.95;;;;;;;;;;6183855;28;20262;-71
2022/08/04 13:39:58;;;;;;;2.50;1.80;;;;;;;;;;6181597;28;20286;-70
2022/08/04 13:43:00;;;;;;;2.60;1.70;;;;;;;;;;6179729;28;20121;-70
2022/08/04 13:46:03;;;;;;;3.55;1.70;;;;;;;;;;6182820;28;20054;-70
2022/08/04 13:49:10;;;;;;;2.95;2.03;;;;;;;;;;6182167;28;20047;-71
2022/08/04 13:52:11;;;;;;;2.45;1.67;;;;;;;;;;6183127;28;20069;-71
2022/08/04 13:55:26;;;;;;;2.30;2.03;;;;;;;;;;6186421;28;20051;-70
2022/08/04 13:58:31;;;;;;;3.45;1.90;;;;;;;;;;6180370;28;20101;-70
2022/08/04 14:01:35;;;;;;;4.03;2.30;;;;;;;;;;6159498;28;20058;-70
2022/08/04 14:05:10;;;;;;;2.53;1.80;;;;;;;;;;6181103;28;20084;-70
2022/08/04 14:08:15;;;;;;;2.40;2.05;;;;;;;;;;6181074;28;20069;-71
2022/08/04 14:11:19;;;;;;;4.82;2.17;;;;;;;;;;6183041;28;20055;-70
2022/08/04 14:14:22;;;;;;;3.20;2.00;;;;;;;;;;6181853;28;20741;-71
2022/08/04 14:17:25;;;;;;;3.25;2.20;;;;;;;;;;6184966;28;20051;-70
2022/08/04 14:20:28;;;;;;;2.20;2.00;;;;;;;;;;6183144;28;20054;-70
2022/08/04 14:23:39;;;;;;;4.32;2.00;;;;;;;;;;6155861;28;20223;-70
2022/08/04 14:26:40;;;;;;;;;;;;;;;;;;6184137;28;20046;-70
2022/08/04 14:29:42;;;;;;;3.20;1.98;;;;;;;;;;6182202;28;19926;-70
2022/08/04 14:32:57;;;;;;;2.88;2.03;;;;;;;;;;6180242;28;20326;-71
2022/08/04 14:36:00;;;;;;;4.28;2.20;;;;;;;;;;6181320;28;20266;-70
2022/08/04 14:39:02;;;;;;;2.83;2.10;;;;;;;;;;6181839;28;20058;-70
2022/08/04 14:42:05;;;;;;;3.72;2.17;;;;;;;;;;6186182;28;20086;-71
2022/08/04 14:45:08;;;;;;;3.22;1.75;;;;;;;;;;6189853;28;20082;-70
2022/08/04 14:48:11;;;;;;;3.50;1.70;;;;;;;;;;6180504;28;20326;-70
2022/08/04 14:51:14;;;;;;;1.83;1.52;;;;;;;;;;6181154;28;20061;-70
2022/08/04 14:54:17;;;;;;;1.70;1.60;;;;;;;;;;6179657;28;20043;-70
2022/08/04 14:57:19;;;;;;;2.90;1.70;;;;;;;;;;6182095;28;20061;-71
2022/08/04 15:00:28;;;;;;;2.08;1.95;;;;;;;;;;6181120;28;20065;-71
2022/08/04 15:03:31;;;;;;;2.30;1.88;;;;;;;;;;6182943;28;20051;-73
2022/08/04 15:06:34;;;;;;;3.15;1.70;;;;;;;;;;6184358;28;20042;-71
2022/08/04 15:09:36;;;;;;;5.20;1.88;;;;;;;;;;6182002;28;20054;-72
2022/08/04 15:12:38;;;;;;;2.05;1.85;;;;;;;;;;6178018;28;20253;-73
2022/08/04 15:15:41;;;;;;;1.75;1.65;;;;;;;;;;6183915;28;20055;-72
2022/08/04 15:18:43;;;;;;;1.90;1.80;;;;;;;;;;6181240;28;20054;-72
2022/08/04 15:21:46;;;;;;;2.78;2.00;;;;;;;;;;6179349;28;20049;-73
2022/08/04 15:24:48;;;;;;;7.53;4.25;;;;;;;;;;6181014;28;20109;-75
2022/08/04 15:27:51;;;;;;;32.42;29.13;;;;;;;;;;6179864;28;20059;-75
2022/08/04 15:30:54;;;;;;;5.45;3.17;;;;;;;;;;6184126;28;20050;-71
2022/08/04 15:33:56;;;;;;;2.80;1.65;;;;;;;;;;6181574;28;20332;-70
2022/08/04 15:37:05;;;;;;;3.05;1.60;;;;;;;;;;6182762;28;20058;-71
2022/08/04 15:40:09;;;;;;;3.67;1.83;;;;;;;;;;6180656;28;20047;-71
2022/08/04 15:43:22;;;;;;;3.30;1.63;;;;;;;;;;6170465;28;20070;-71
2022/08/04 15:47:04;;;;;;;3.53;1.65;;;;;;;;;;6193304;28;20121;-71
2022/08/04 15:50:08;;;;;;;5.45;1.63;;;;;;;;;;6181055;28;20046;-72
2022/08/04 15:53:11;;;;;;;2.72;1.63;;;;;;;;;;6177562;28;20067;-71
2022/08/04 15:56:43;;;;;;;5.18;1.50;;;;;;;;;;6180364;28;20055;-70
2022/08/04 16:00:04;;;;;;;2.17;1.70;;;;;;;;;;6178292;28;20230;-71
2022/08/04 16:03:41;;;;;;;1.55;1.40;;;;;;;;;;6179409;28;20060;-70
2022/08/04 16:06:44;;;;;;;1.83;1.40;;;;;;;;;;6186154;28;20050;-71
2022/08/04 16:09:47;;;;;;;3.83;1.50;;;;;;;;;;6184900;28;20397;-71
2022/08/04 16:12:55;;;;;;;2.30;1.67;;;;;;;;;;6184677;28;20059;-70
2022/08/04 16:16:05;;;;;;;3.35;1.70;;;;;;;;;;6183331;28;20054;-70
2022/08/04 16:19:08;;;;;;;3.17;1.60;;;;;;;;;;6186440;28;20053;-70
2022/08/04 16:22:11;;;;;;;2.47;1.60;;;;;;;;;;6186572;28;20059;-70
2022/08/04 16:25:14;;;;;;;5.00;1.73;;;;;;;;;;6184942;28;20057;-70
2022/08/04 16:28:43;;;;;;;1.85;1.73;;;;;;;;;;6185752;28;20050;-71
2022/08/04 16:32:06;;;;;;;1.73;1.40;;;;;;;;;;6108103;29;20055;-71
2022/08/04 16:35:28;;;;;;;5.07;1.67;;;;;;;;;;6108942;29;20075;-69
2022/08/04 16:38:29;;;;;;;4.85;1.80;;;;;;;;;;6107874;29;20070;-71
2022/08/04 16:41:43;;;;;;;3.58;1.60;;;;;;;;;;6108566;29;20335;-70
2022/08/04 16:44:45;;;;;;;3.10;1.58;;;;;;;;;;6108925;29;20121;-72
2022/08/04 16:48:04;;;;;;;1.70;1.60;;;;;;;;;;6105490;29;20060;-72
2022/08/04 16:51:08;;;;;;;4.60;1.88;;;;;;;;;;6107335;29;20247;-71
2022/08/04 16:54:10;;;;;;;2.28;1.58;;;;;;;;;;6107584;29;20067;-71
2022/08/04 16:57:14;;;;;;;2.67;1.90;;;;;;;;;;6108263;29;20060;-71
2022/08/04 17:00:17;;;;;;;1.90;1.67;;;;;;;;;;6108074;29;20258;-71
2022/08/04 17:03:18;;;;;;;2.58;1.67;;;;;;;;;;6110249;29;20255;-71
2022/08/04 17:06:21;;;;;;;3.83;2.00;;;;;;;;;;6120444;28;20056;-70
2022/08/04 17:09:23;;;;;;;1.80;1.50;;;;;;;;;;6186412;28;20376;-70
2022/08/04 17:12:29;;;;;;;4.00;1.80;;;;;;;;;;6181079;28;20051;-70
2022/08/04 17:15:31;;;;;;;2.88;1.63;;;;;;;;;;6182812;28;20051;-70
2022/08/04 17:18:35;;;;;;;2.85;1.60;;;;;;;;;;6185474;28;20063;-70
2022/08/04 17:21:38;;;;;;;4.68;1.70;;;;;;;;;;6181003;28;21075;-70
2022/08/04 17:24:40;;;;;;;5.43;2.28;;;;;;;;;;6186781;28;20058;-70
2022/08/04 17:27:43;;;;;;;2.53;1.55;;;;;;;;;;6185260;28;20047;-70
2022/08/04 17:30:45;;;;;;;2.58;1.90;;;;;;;;;;6185502;28;20093;-70
2022/08/04 17:33:49;;;;;;;3.22;1.90;;;;;;;;;;6184830;28;20051;-70
2022/08/04 17:36:51;;;;;;;5.05;1.95;;;;;;;;;;6181968;28;20362;-70
2022/08/04 17:40:23;;;;;;;2.25;1.70;;;;;;;;;;6180316;28;20106;-70
2022/08/04 17:43:43;;;;;;;2.08;1.67;;;;;;;;;;6168681;28;20093;-70
2022/08/04 17:46:46;;;;;;;3.25;1.75;;;;;;;;;;6182733;28;20062;-71
2022/08/04 17:49:47;;;;;;;1.85;1.60;;;;;;;;;;6179347;28;20097;-70
2022/08/04 17:52:58;;;;;;;2.03;1.75;;;;;;;;;;6181906;28;20345;-70
2022/08/04 17:56:00;;;;;;;3.15;1.88;;;;;;;;;;6180594;28;20038;-70
2022/08/04 17:59:21;;;;;;;5.47;1.80;;;;;;;;;;6179737;28;20102;-70
2022/08/04 18:02:23;;;;;;;3.05;1.80;;;;;;;;;;6184675;28;20058;-70
2022/08/04 18:05:30;;;;;;;2.55;1.70;;;;;;;;;;6183773;28;20340;-70
2022/08/04 18:08:32;;;;;;;2.70;1.50;;;;;;;;;;6187811;28;20046;-70
2022/08/04 18:11:33;;;;;;;3.38;1.80;;;;;;;;;;6176176;28;20114;-71
2022/08/04 18:14:44;;;;;;;3.20;1.70;;;;;;;;;;6181338;28;20278;-70
2022/08/04 18:17:46;;;;;;;3.15;1.88;;;;;;;;;;6178630;28;20477;-70
2022/08/04 18:20:48;;;;;;;1.65;1.50;;;;;;;;;;6180873;28;20102;-70
2022/08/04 18:23:51;;;;;;;5.25;1.90;;;;;;;;;;6181340;28;20050;-69
2022/08/04 18:26:53;;;;;;;3.85;1.70;;;;;;;;;;6186620;28;20062;-70
2022/08/04 18:29:57;;;;;;;2.78;1.70;;;;;;;;;;6181642;28;20047;-70
2022/08/04 18:32:58;;;;;;;3.17;1.73;;;;;;;;;;6186344;28;20046;-70
2022/08/04 18:36:00;;;;;;;3.10;1.70;;;;;;;;;;6188995;28;20246;-70
2022/08/04 18:39:03;;;;;;;3.60;1.80;;;;;;;;;;6189303;28;20082;-70
2022/08/04 18:42:04;;;;;;;;;;;;;;;;;;6187118;28;20446;-68
2022/08/04 18:45:10;;;;;;;5.20;2.92;;;;;;;;;;6185020;28;19926;-70
2022/08/04 18:48:11;;;;;;;7.78;3.95;;;;;;;;;;6182744;28;20077;-69
2022/08/04 18:51:13;;;;;;;6.43;1.90;;;;;;;;;;6181901;28;20097;-69
2022/08/04 18:54:15;;;;;;;5.77;1.80;;;;;;;;;;6188401;28;20832;-69
2022/08/04 18:57:18;;;;;;;3.43;1.80;;;;;;;;;;6186405;28;20482;-69
2022/08/04 19:00:21;;;;;;;3.05;1.80;;;;;;;;;;6188465;28;20481;-69
2022/08/04 19:03:23;;;;;;;2.85;2.08;;;;;;;;;;6187834;28;20061;-69
2022/08/04 19:06:25;;;;;;;2.40;2.20;;;;;;;;;;6185494;28;20128;-68
2022/08/04 19:09:27;;;;;;;3.85;1.90;;;;;;;;;;6184966;28;20047;-68
2022/08/04 19:12:28;;;;;;;3.83;2.53;;;;;;;;;;6187496;28;20054;-67
2022/08/04 19:15:31;;;;;;;5.40;2.20;;;;;;;;;;6184873;28;20337;-67
2022/08/04 19:18:34;;;;;;;9.57;2.08;;;;;;;;;;6184259;28;20462;-68
2022/08/04 19:21:36;;;;;;;3.47;2.13;;;;;;;;;;6183071;28;20244;-69